Time;durP1;ratioP1;P1;durP2;ratioP2;P2;SDS_P1;SDS_P2;PMS_P1;PMS_P2;Temp;Humidity;BMP_temperature;BMP_pressure;BME280_temperature;BME280_humidity;BME280_pressure;Samples;Min_cycle;Max_cycle;Signal;HPM_P1;HPM_P2
2023/04/23 00:01:54;;;;;;;18.00;12.57;;;8.00;99.90;;;;;;5040216;28;20051;-64
2023/04/23 00:04:21;;;;;;;20.33;12.30;;;8.00;99.90;;;;;;5044811;28;20095;-64
2023/04/23 00:06:47;;;;;;;22.08;12.88;;;8.00;99.90;;;;;;5045968;28;20045;-64
2023/04/23 00:09:15;;;;;;;22.25;12.60;;;8.00;99.90;;;;;;5049050;28;20045;-65
2023/04/23 00:11:41;;;;;;;21.50;13.65;;;8.00;99.90;;;;;;5048347;28;20045;-65
2023/04/23 00:14:07;;;;;;;19.65;13.18;;;8.00;99.90;;;;;;5026374;28;20563;-65
2023/04/23 00:16:33;;;;;;;22.50;13.82;;;8.00;99.90;;;;;;5047294;28;20132;-65
2023/04/23 00:18:59;;;;;;;19.30;13.88;;;8.00;99.90;;;;;;5048025;28;20049;-65
2023/04/23 00:21:26;;;;;;;18.00;12.52;;;8.00;99.90;;;;;;5048620;28;20091;-65
2023/04/23 00:23:52;;;;;;;18.13;13.23;;;7.90;99.90;;;;;;5047548;28;20099;-65
2023/04/23 00:26:17;;;;;;;25.92;12.90;;;7.90;99.90;;;;;;5048879;28;20044;-65
2023/04/23 00:28:44;;;;;;;22.00;14.52;;;7.90;99.90;;;;;;5047990;28;20483;-65
2023/04/23 00:31:09;;;;;;;21.30;14.55;;;7.90;99.90;;;;;;5030405;28;20507;-65
2023/04/23 00:33:35;;;;;;;18.15;13.13;;;7.80;99.90;;;;;;5030088;28;20091;-64
2023/04/23 00:36:01;;;;;;;19.85;14.07;;;7.70;99.90;;;;;;5029391;28;20048;-65
2023/04/23 00:38:27;;;;;;;22.10;14.20;;;7.70;99.90;;;;;;5029035;28;20084;-65
2023/04/23 00:40:52;;;;;;;21.05;13.93;;;7.70;99.90;;;;;;5039325;28;20037;-64
2023/04/23 00:43:19;;;;;;;19.48;14.25;;;7.60;99.90;;;;;;5043080;28;20108;-64
2023/04/23 00:45:46;;;;;;;22.58;14.63;;;7.70;99.90;;;;;;5047172;28;20041;-65
2023/04/23 00:48:12;;;;;;;22.33;14.70;;;7.60;99.90;;;;;;5030358;28;20475;-65
2023/04/23 00:50:38;;;;;;;23.40;15.40;;;7.60;99.90;;;;;;5047347;28;20513;-65
2023/04/23 00:53:03;;;;;;;23.83;15.50;;;7.60;99.90;;;;;;5036612;28;20045;-65
2023/04/23 00:55:29;;;;;;;26.52;15.75;;;7.60;99.90;;;;;;5012469;28;20110;-65
2023/04/23 00:57:55;;;;;;;25.48;15.45;;;7.60;99.90;;;;;;5029502;28;20096;-65
2023/04/23 01:00:21;;;;;;;22.42;16.00;;;7.60;99.90;;;;;;5048380;28;20494;-70
2023/04/23 01:02:48;;;;;;;21.50;16.20;;;7.60;99.90;;;;;;5028906;28;20464;-64
2023/04/23 01:05:16;;;;;;;22.13;14.85;;;7.70;99.90;;;;;;5048121;28;20202;-64
2023/04/23 01:07:43;;;;;;;25.30;16.65;;;7.70;99.90;;;;;;5011940;28;20041;-64
2023/04/23 01:10:10;;;;;;;22.42;16.60;;;7.70;99.90;;;;;;5046995;28;20044;-65
2023/04/23 01:12:36;;;;;;;27.35;17.55;;;7.70;99.90;;;;;;5047489;28;20041;-65
2023/04/23 01:15:03;;;;;;;25.13;16.75;;;7.70;99.90;;;;;;5046948;28;20087;-64
2023/04/23 01:17:29;;;;;;;27.83;18.92;;;7.70;99.90;;;;;;5046689;28;20100;-65
2023/04/23 01:19:55;;;;;;;30.92;19.63;;;7.70;99.90;;;;;;5046679;28;20068;-64
2023/04/23 01:22:21;;;;;;;31.38;19.10;;;7.70;99.90;;;;;;5030539;28;20045;-64
2023/04/23 01:24:46;;;;;;;29.10;20.20;;;7.70;99.90;;;;;;5046599;28;20040;-65
2023/04/23 01:27:12;;;;;;;27.50;19.35;;;7.70;99.90;;;;;;5047410;28;20109;-64
2023/04/23 01:29:39;;;;;;;27.90;18.15;;;7.70;99.90;;;;;;5046877;28;20403;-64
2023/04/23 01:32:06;;;;;;;30.23;18.73;;;7.70;99.90;;;;;;5046677;28;20052;-64
2023/04/23 01:34:33;;;;;;;29.05;19.90;;;7.80;99.90;;;;;;5046587;28;20492;-65
2023/04/23 01:36:59;;;;;;;32.83;19.52;;;7.80;99.90;;;;;;5046570;28;20110;-64
2023/04/23 01:39:25;;;;;;;41.55;22.38;;;7.80;99.90;;;;;;5047421;28;20041;-64
2023/04/23 01:41:52;;;;;;;37.35;22.75;;;7.90;99.90;;;;;;5045725;28;20090;-64
2023/04/23 01:44:18;;;;;;;36.03;22.60;;;7.90;99.90;;;;;;5028996;28;20500;-64
2023/04/23 01:46:44;;;;;;;38.50;23.60;;;7.90;99.90;;;;;;5046543;28;20032;-64
2023/04/23 01:49:10;;;;;;;34.13;22.30;;;7.90;99.90;;;;;;5046475;28;20427;-64
2023/04/23 01:51:36;;;;;;;36.63;24.25;;;8.00;99.90;;;;;;5042422;28;20626;-64
2023/04/23 01:54:02;;;;;;;38.47;22.92;;;8.00;99.90;;;;;;5027959;28;20057;-64
2023/04/23 01:56:29;;;;;;;39.25;24.08;;;7.90;99.90;;;;;;5047405;28;20041;-64
2023/04/23 01:58:55;;;;;;;35.03;23.58;;;8.00;99.90;;;;;;5027593;28;20084;-64
2023/04/23 02:01:21;;;;;;;43.08;25.90;;;7.90;99.90;;;;;;5046947;28;20162;-64
2023/04/23 02:03:49;;;;;;;40.70;24.55;;;8.00;99.90;;;;;;5024477;28;20454;-64
2023/04/23 02:06:16;;;;;;;32.20;20.92;;;8.00;99.90;;;;;;5036852;28;20059;-64
2023/04/23 02:08:42;;;;;;;47.13;24.65;;;8.00;99.90;;;;;;5046386;28;20071;-64
2023/04/23 02:11:07;;;;;;;47.45;25.38;;;8.00;99.90;;;;;;5045828;28;20041;-64
2023/04/23 02:13:34;;;;;;;31.92;20.50;;;8.10;99.90;;;;;;5027977;28;20099;-64
2023/04/23 02:15:59;;;;;;;40.53;23.08;;;8.00;99.90;;;;;;5045145;28;20060;-64
2023/04/23 02:18:25;;;;;;;35.38;22.10;;;8.00;99.90;;;;;;5047131;28;20052;-79
2023/04/23 02:20:51;;;;;;;44.70;24.95;;;8.00;99.90;;;;;;5045516;28;20545;-64
2023/04/23 02:23:17;;;;;;;36.28;22.48;;;8.00;99.90;;;;;;5046635;28;20518;-64
2023/04/23 02:25:42;;;;;;;39.35;23.02;;;8.10;99.90;;;;;;5045233;28;20049;-65
2023/04/23 02:28:12;;;;;;;35.05;22.10;;;8.00;99.90;;;;;;5045639;28;20388;-65
2023/04/23 02:30:39;;;;;;;38.42;22.95;;;8.00;99.90;;;;;;5045681;28;20479;-64
2023/04/23 02:33:05;;;;;;;41.70;25.52;;;8.00;99.90;;;;;;5045597;28;20076;-64
2023/04/23 02:35:31;;;;;;;44.17;24.63;;;8.00;99.90;;;;;;5046306;28;20096;-78
2023/04/23 02:37:56;;;;;;;39.20;22.80;;;8.00;99.90;;;;;;5030913;28;20042;-64
2023/04/23 02:40:22;;;;;;;34.30;20.17;;;8.00;99.90;;;;;;5046310;28;20045;-81
2023/04/23 02:42:48;;;;;;;38.35;22.85;;;8.00;99.90;;;;;;5045406;28;20044;-64
2023/04/23 02:45:14;;;;;;;39.53;23.42;;;7.90;99.90;;;;;;5045252;28;20574;-64
2023/04/23 02:47:40;;;;;;;35.00;21.27;;;7.90;99.90;;;;;;5027686;28;20097;-64
2023/04/23 02:50:06;;;;;;;36.03;21.42;;;7.90;99.90;;;;;;5027321;28;20033;-65
2023/04/23 02:52:32;;;;;;;34.40;21.80;;;7.90;99.90;;;;;;5046714;28;20044;-64
2023/04/23 02:55:00;;;;;;;38.03;22.23;;;7.90;99.90;;;;;;5044588;28;20457;-64
2023/04/23 02:57:27;;;;;;;37.00;21.33;;;7.90;99.90;;;;;;5045971;28;20045;-64
2023/04/23 02:59:54;;;;;;;37.78;23.17;;;7.90;99.90;;;;;;5044422;28;20519;-64
2023/04/23 03:02:20;;;;;;;37.10;22.42;;;7.80;99.90;;;;;;5045785;28;20073;-64
2023/04/23 03:04:46;;;;;;;36.28;22.08;;;7.80;99.90;;;;;;5045242;28;20099;-64
2023/04/23 03:07:12;;;;;;;30.80;20.88;;;7.80;99.90;;;;;;5043637;28;20069;-64
2023/04/23 03:09:38;;;;;;;35.08;21.98;;;7.70;99.90;;;;;;5045710;28;20051;-64
2023/04/23 03:12:04;;;;;;;33.25;20.65;;;7.60;99.90;;;;;;5045389;28;20036;-64
2023/04/23 03:14:30;;;;;;;31.88;20.88;;;7.50;99.90;;;;;;5046055;28;20045;-64
2023/04/23 03:16:55;;;;;;;31.30;20.15;;;7.50;99.90;;;;;;5025934;28;20487;-65
2023/04/23 03:19:21;;;;;;;32.45;20.20;;;7.40;99.90;;;;;;5045880;28;20507;-64
2023/04/23 03:21:47;;;;;;;31.55;20.85;;;7.30;99.90;;;;;;5026974;28;20037;-64
2023/04/23 03:24:13;;;;;;;33.17;21.45;;;7.30;99.90;;;;;;5045105;28;20045;-64
2023/04/23 03:26:40;;;;;;;29.33;20.33;;;7.20;99.90;;;;;;5045677;28;20045;-64
2023/04/23 03:29:06;;;;;;;38.95;21.42;;;7.20;99.90;;;;;;5044651;28;20056;-64
2023/04/23 03:31:32;;;;;;;31.40;20.60;;;7.20;99.90;;;;;;5046129;28;20041;-64
2023/04/23 03:33:58;;;;;;;32.08;19.95;;;7.10;99.90;;;;;;5045344;28;20403;-85
2023/04/23 03:36:23;;;;;;;35.50;20.60;;;7.10;99.90;;;;;;5046376;28;20131;-64
2023/04/23 03:38:49;;;;;;;33.45;19.65;;;7.10;99.90;;;;;;5045600;28;20491;-79
2023/04/23 03:41:15;;;;;;;35.50;21.75;;;7.00;99.90;;;;;;5046621;28;20029;-65
2023/04/23 03:43:41;;;;;;;36.47;21.45;;;6.90;99.90;;;;;;5049230;28;20564;-65
2023/04/23 03:46:06;;;;;;;34.47;22.77;;;6.80;99.90;;;;;;5030637;28;20076;-65
2023/04/23 03:48:32;;;;;;;88.30;19.98;;;6.90;99.90;;;;;;5030867;28;20475;-64
2023/04/23 03:50:58;;;;;;;212.98;18.63;;;6.80;99.90;;;;;;5047965;28;20053;-64
2023/04/23 03:53:24;;;;;;;342.45;18.23;;;6.80;99.90;;;;;;5031383;28;20041;-64
2023/04/23 03:55:50;;;;;;;353.40;14.98;;;6.80;99.90;;;;;;5047549;28;20041;-65
2023/04/23 03:58:15;;;;;;;320.27;13.95;;;6.70;99.90;;;;;;5049294;28;20045;-65
2023/04/23 04:00:41;;;;;;;334.17;12.98;;;6.70;99.90;;;;;;5048367;28;20048;-64
2023/04/23 04:03:07;;;;;;;279.05;12.48;;;6.60;99.90;;;;;;5048381;28;20041;-65
2023/04/23 04:05:34;;;;;;;152.77;11.93;;;6.50;99.90;;;;;;5030600;28;20116;-65
2023/04/23 04:08:00;;;;;;;125.18;11.82;;;6.40;99.90;;;;;;5030274;28;20091;-65
2023/04/23 04:10:26;;;;;;;46.00;11.00;;;6.30;99.90;;;;;;5048557;28;20043;-65
2023/04/23 04:12:54;;;;;;;49.47;13.50;;;6.30;99.90;;;;;;5047355;28;20116;-65
2023/04/23 04:15:19;;;;;;;27.45;16.23;;;6.30;99.90;;;;;;5030971;28;20065;-65
2023/04/23 04:17:46;;;;;;;24.75;15.93;;;6.30;99.90;;;;;;5048032;28;20045;-65
2023/04/23 04:20:12;;;;;;;22.00;15.52;;;6.30;99.90;;;;;;5048515;28;20521;-74
2023/04/23 04:22:38;;;;;;;29.30;15.85;;;6.30;99.90;;;;;;5030441;28;20040;-65
2023/04/23 04:25:04;;;;;;;48.60;15.38;;;6.30;99.90;;;;;;5047785;28;20407;-66
2023/04/23 04:27:33;;;;;;;50.35;15.13;;;6.30;99.90;;;;;;5030956;28;20462;-64
2023/04/23 04:30:04;;;;;;;27.00;16.15;;;6.30;99.90;;;;;;5047140;28;20049;-65
2023/04/23 04:32:30;;;;;;;28.83;18.23;;;6.20;99.90;;;;;;5047913;28;20057;-65
2023/04/23 04:34:56;;;;;;;50.08;18.67;;;6.30;99.90;;;;;;5046945;28;20052;-72
2023/04/23 04:37:22;;;;;;;98.72;21.17;;;6.30;99.90;;;;;;5030439;28;20469;-65
2023/04/23 04:39:48;;;;;;;42.53;20.10;;;6.30;99.90;;;;;;5029937;28;20145;-65
2023/04/23 04:42:14;;;;;;;52.88;20.65;;;6.40;99.90;;;;;;5047801;28;20212;-65
2023/04/23 04:44:42;;;;;;;66.57;20.25;;;6.40;99.90;;;;;;5048344;28;20045;-65
2023/04/23 04:47:08;;;;;;;71.90;20.50;;;6.40;99.90;;;;;;5047284;28;20387;-73
2023/04/23 04:49:34;;;;;;;86.53;20.20;;;6.50;99.90;;;;;;5048373;28;20041;-65
2023/04/23 04:52:00;;;;;;;74.00;19.40;;;6.60;99.90;;;;;;5046001;28;20049;-65
2023/04/23 04:54:26;;;;;;;47.92;20.45;;;6.60;99.90;;;;;;5046533;28;20048;-65
2023/04/23 04:56:52;;;;;;;68.35;21.63;;;6.60;99.90;;;;;;5046869;28;20040;-65
2023/04/23 04:59:17;;;;;;;57.70;22.80;;;6.70;99.90;;;;;;5029921;28;20048;-65
2023/04/23 05:01:43;;;;;;;60.35;22.48;;;6.70;99.90;;;;;;5029689;28;20048;-65
2023/04/23 05:04:09;;;;;;;71.88;21.67;;;6.80;99.90;;;;;;5047012;28;20596;-69
2023/04/23 05:06:35;;;;;;;42.67;23.55;;;6.90;99.90;;;;;;5028001;28;20495;-65
2023/04/23 05:09:00;;;;;;;39.85;24.90;;;7.00;99.90;;;;;;5046460;28;20045;-66
2023/04/23 05:11:26;;;;;;;42.90;27.02;;;7.10;99.90;;;;;;5030511;28;20188;-64
2023/04/23 05:13:52;;;;;;;44.15;26.83;;;7.20;99.90;;;;;;5028848;28;20053;-66
2023/04/23 05:16:18;;;;;;;48.40;28.60;;;7.30;99.90;;;;;;5047284;28;20175;-65
2023/04/23 05:18:43;;;;;;;54.00;29.13;;;7.40;99.90;;;;;;5046769;28;20037;-65
2023/04/23 05:21:09;;;;;;;51.13;29.55;;;7.50;99.90;;;;;;5046907;28;20041;-65
2023/04/23 05:23:35;;;;;;;49.88;28.35;;;7.60;99.90;;;;;;5029336;28;20095;-64
2023/04/23 05:26:04;;;;;;;58.97;30.40;;;7.60;99.90;;;;;;5046400;28;20041;-65
2023/04/23 05:28:30;;;;;;;69.18;30.13;;;7.60;99.90;;;;;;5047587;28;20045;-64
2023/04/23 05:30:57;;;;;;;54.25;29.80;;;7.60;99.90;;;;;;5045921;28;20045;-65
2023/04/23 05:33:24;;;;;;;54.53;32.30;;;7.60;99.90;;;;;;5029731;28;20098;-65
2023/04/23 05:35:50;;;;;;;66.97;30.58;;;7.60;99.90;;;;;;5046785;28;20559;-65
2023/04/23 05:38:16;;;;;;;86.38;33.08;;;7.70;99.90;;;;;;5046521;28;20487;-65
2023/04/23 05:40:42;;;;;;;96.00;35.08;;;7.70;99.90;;;;;;5045070;28;20202;-64
2023/04/23 05:43:08;;;;;;;75.32;32.03;;;7.80;99.90;;;;;;5046177;28;20120;-64
2023/04/23 05:45:34;;;;;;;74.22;34.75;;;7.80;99.90;;;;;;5047503;28;20052;-64
2023/04/23 05:48:00;;;;;;;67.80;35.35;;;7.80;99.90;;;;;;5045051;28;20072;-65
2023/04/23 05:50:26;;;;;;;61.67;34.25;;;7.90;99.90;;;;;;5034135;28;20529;-64
2023/04/23 05:52:52;;;;;;;66.32;36.42;;;8.00;99.90;;;;;;5028586;28;20050;-64
2023/04/23 05:55:19;;;;;;;70.15;39.72;;;8.00;99.90;;;;;;5011947;28;20056;-65
2023/04/23 05:57:45;;;;;;;68.90;38.72;;;8.10;99.90;;;;;;5046628;28;20041;-85
2023/04/23 06:00:12;;;;;;;59.40;34.25;;;8.20;99.90;;;;;;5045559;28;20048;-64
2023/04/23 06:02:38;;;;;;;66.20;36.83;;;8.30;99.90;;;;;;5046775;28;20105;-65
2023/04/23 06:05:05;;;;;;;63.20;38.92;;;8.40;99.90;;;;;;5026778;28;20036;-65
2023/04/23 06:07:31;;;;;;;74.95;40.53;;;8.40;99.90;;;;;;5047150;28;20103;-65
2023/04/23 06:09:58;;;;;;;73.00;39.75;;;8.50;99.90;;;;;;5045610;28;20060;-64
2023/04/23 06:12:23;;;;;;;79.30;41.53;;;8.50;99.90;;;;;;5028390;28;20040;-64
2023/04/23 06:14:49;;;;;;;71.05;40.38;;;8.60;99.90;;;;;;5046034;28;20399;-64
2023/04/23 06:17:15;;;;;;;66.43;37.88;;;8.60;99.90;;;;;;5045317;28;20076;-64
2023/04/23 06:19:41;;;;;;;67.45;39.20;;;8.60;99.90;;;;;;5028390;28;20037;-64
2023/04/23 06:22:06;;;;;;;62.28;37.25;;;8.60;99.90;;;;;;5023765;28;20049;-64
2023/04/23 06:24:32;;;;;;;70.43;40.63;;;8.70;99.90;;;;;;5027878;28;20036;-64
2023/04/23 06:26:58;;;;;;;64.15;37.42;;;8.70;99.90;;;;;;5045708;28;20055;-64
2023/04/23 06:29:23;;;;;;;62.55;35.95;;;8.80;99.90;;;;;;5046368;28;20057;-64
2023/04/23 06:31:49;;;;;;;69.28;37.00;;;8.70;99.90;;;;;;5027027;28;20079;-64
2023/04/23 06:34:15;;;;;;;61.55;35.88;;;8.70;99.90;;;;;;5038788;28;20049;-65
2023/04/23 06:36:42;;;;;;;58.97;35.42;;;8.80;99.90;;;;;;5045567;28;20083;-64
2023/04/23 06:39:09;;;;;;;67.82;40.13;;;8.70;99.90;;;;;;5026995;28;20041;-64
2023/04/23 06:41:35;;;;;;;63.13;38.17;;;8.70;99.90;;;;;;5028052;28;20076;-64
2023/04/23 06:44:00;;;;;;;59.80;37.50;;;8.80;99.90;;;;;;5045438;28;20467;-64
2023/04/23 06:46:26;;;;;;;66.00;39.60;;;8.80;99.90;;;;;;5026825;28;20124;-64
2023/04/23 06:48:52;;;;;;;63.17;38.25;;;8.90;99.90;;;;;;5042484;28;20037;-65
2023/04/23 06:51:17;;;;;;;68.75;40.90;;;9.00;99.90;;;;;;5028568;28;20056;-64
2023/04/23 06:53:43;;;;;;;63.22;37.53;;;9.00;99.90;;;;;;5026504;28;20399;-64
2023/04/23 06:56:09;;;;;;;63.97;38.72;;;9.10;99.90;;;;;;5045485;28;20131;-64
2023/04/23 06:58:35;;;;;;;64.40;38.85;;;9.10;99.90;;;;;;5044264;28;20814;-64
2023/04/23 07:01:04;;;;;;;67.10;40.30;;;9.20;99.90;;;;;;5045070;28;20049;-64
2023/04/23 07:03:30;;;;;;;65.18;40.70;;;9.20;99.90;;;;;;5043848;28;20491;-64
2023/04/23 07:05:56;;;;;;;65.13;38.33;;;9.30;99.90;;;;;;5044774;28;20052;-64
2023/04/23 07:08:22;;;;;;;68.20;41.35;;;9.50;99.90;;;;;;5044709;28;20036;-65
2023/04/23 07:10:48;;;;;;;70.05;42.00;;;9.80;99.90;;;;;;5041869;28;20522;-64
2023/04/23 07:13:15;;;;;;;72.05;42.47;;;10.10;99.90;;;;;;5037913;28;20048;-76
2023/04/23 07:15:41;;;;;;;76.85;43.35;;;10.20;99.90;;;;;;5044887;28;20111;-65
2023/04/23 07:18:08;;;;;;;67.57;38.30;;;10.50;99.90;;;;;;5040902;28;20203;-64
2023/04/23 07:20:34;;;;;;;67.47;40.58;;;10.60;99.90;;;;;;5049016;28;20075;-66
2023/04/23 07:22:59;;;;;;;68.15;40.00;;;10.60;99.90;;;;;;5048599;28;20040;-64
2023/04/23 07:25:26;;;;;;;69.72;40.13;;;10.70;99.90;;;;;;5029466;28;20457;-64
2023/04/23 07:27:55;;;;;;;74.70;40.92;;;10.90;99.90;;;;;;5048836;28;20099;-64
2023/04/23 07:30:22;;;;;;;73.10;40.65;;;11.30;99.90;;;;;;5049270;28;20406;-64
2023/04/23 07:32:48;;;;;;;71.82;40.10;;;11.50;99.90;;;;;;5036584;28;20497;-64
2023/04/23 07:35:14;;;;;;;65.38;38.13;;;11.70;99.90;;;;;;5049071;28;20049;-65
2023/04/23 07:37:40;;;;;;;63.05;40.05;;;11.80;99.90;;;;;;5048978;28;20487;-64
2023/04/23 07:40:07;;;;;;;58.88;36.65;;;11.90;99.90;;;;;;5047975;28;20037;-64
2023/04/23 07:42:33;;;;;;;64.90;38.58;;;11.90;99.90;;;;;;5030288;28;20408;-64
2023/04/23 07:44:59;;;;;;;64.43;36.03;;;12.10;99.90;;;;;;5039466;28;20033;-65
2023/04/23 07:47:25;;;;;;;67.05;37.53;;;12.30;99.90;;;;;;5043852;28;20029;-64
2023/04/23 07:49:51;;;;;;;56.45;35.38;;;12.40;99.90;;;;;;5039844;28;20049;-65
2023/04/23 07:52:16;;;;;;;58.70;36.92;;;12.50;99.90;;;;;;5038139;28;20057;-64
2023/04/23 07:54:43;;;;;;;63.67;38.58;;;12.60;99.90;;;;;;5030024;28;20495;-65
2023/04/23 07:57:10;;;;;;;57.35;36.55;;;12.80;99.90;;;;;;5036159;28;20033;-65
2023/04/23 07:59:37;;;;;;;57.00;33.83;;;13.00;99.90;;;;;;5046086;28;20045;-65
2023/04/23 08:02:04;;;;;;;55.08;29.40;;;13.20;99.90;;;;;;5044782;28;20041;-64
2023/04/23 08:04:30;;;;;;;54.10;32.42;;;13.30;99.90;;;;;;5047618;28;20387;-65
2023/04/23 08:06:55;;;;;;;52.35;33.65;;;13.60;99.90;;;;;;5027935;28;20049;-64
2023/04/23 08:09:21;;;;;;;37.47;22.23;;;13.70;99.90;;;;;;5030194;28;20056;-63
2023/04/23 08:11:47;;;;;;;45.28;31.10;;;13.70;99.90;;;;;;5048197;28;20499;-64
2023/04/23 08:14:13;;;;;;;43.97;27.80;;;13.70;99.90;;;;;;5048365;28;20114;-65
2023/04/23 08:16:39;;;;;;;50.28;31.30;;;13.70;99.90;;;;;;5047694;28;20053;-65
2023/04/23 08:19:05;;;;;;;46.35;28.40;;;13.70;99.90;;;;;;5047342;28;20045;-64
2023/04/23 08:21:32;;;;;;;46.42;29.85;;;13.70;99.90;;;;;;5027088;28;20593;-64
2023/04/23 08:23:58;;;;;;;47.60;30.52;;;13.70;99.90;;;;;;5029450;28;20475;-64
2023/04/23 08:26:24;;;;;;;44.55;29.50;;;13.70;99.90;;;;;;5026817;28;20049;-64
2023/04/23 08:28:49;;;;;;;45.63;29.55;;;13.70;99.90;;;;;;5045601;28;20063;-64
2023/04/23 08:31:16;;;;;;;46.05;29.30;;;13.70;99.90;;;;;;5047013;28;20110;-64
2023/04/23 08:33:42;;;;;;;46.70;30.05;;;13.70;99.90;;;;;;5026837;28;20106;-64
2023/04/23 08:36:08;;;;;;;49.08;30.67;;;13.80;99.90;;;;;;5045099;28;20048;-63
2023/04/23 08:38:34;;;;;;;46.85;30.58;;;13.90;99.90;;;;;;5044571;28;20037;-64
2023/04/23 08:41:04;;;;;;;43.45;29.92;;;13.90;99.90;;;;;;5027065;28;20058;-71
2023/04/23 08:43:51;;;;;;;47.45;31.05;;;13.90;99.90;;;;;;4971032;28;20082;-66
2023/04/23 08:46:18;;;;;;;43.50;28.90;;;14.10;99.90;;;;;;4989631;28;20045;-64
2023/04/23 08:48:46;;;;;;;43.20;28.95;;;14.10;99.90;;;;;;5007844;28;20125;-64
2023/04/23 08:51:16;;;;;;;44.58;28.23;;;14.00;99.90;;;;;;4973651;28;20132;-63
2023/04/23 08:53:44;;;;;;;43.13;28.45;;;14.10;99.90;;;;;;5007173;28;20046;-64
2023/04/23 08:56:13;;;;;;;46.38;28.48;;;14.50;99.90;;;;;;5008092;28;20046;-64
2023/04/23 08:58:40;;;;;;;45.08;29.33;;;14.80;99.90;;;;;;4988842;28;20556;-64
2023/04/23 09:01:07;;;;;;;39.88;27.95;;;14.80;99.90;;;;;;5007154;28;20041;-65
2023/04/23 09:03:33;;;;;;;39.35;26.40;;;14.90;99.90;;;;;;4989055;28;20054;-65
2023/04/23 09:05:59;;;;;;;39.25;26.80;;;15.20;99.90;;;;;;4989994;28;20049;-64
2023/04/23 09:08:25;;;;;;;36.00;25.13;;;15.10;99.90;;;;;;5007075;28;20097;-64
2023/04/23 09:10:54;;;;;;;39.65;25.35;;;15.00;99.30;;;;;;4979920;28;20547;-65
2023/04/23 09:13:21;;;;;;;35.55;24.92;;;14.90;99.10;;;;;;5008251;28;20177;-64
2023/04/23 09:15:47;;;;;;;38.95;26.75;;;14.80;99.90;;;;;;5006175;28;20523;-64
2023/04/23 09:18:13;;;;;;;36.17;22.42;;;14.90;99.90;;;;;;4990887;28;20507;-64
2023/04/23 09:20:40;;;;;;;31.48;23.73;;;15.00;99.00;;;;;;5006331;28;20038;-64
2023/04/23 09:23:07;;;;;;;34.72;24.08;;;15.10;99.90;;;;;;5005020;28;20057;-64
2023/04/23 09:25:33;;;;;;;39.22;25.55;;;15.30;97.40;;;;;;5006550;28;20030;-64
2023/04/23 09:28:02;;;;;;;31.33;20.88;;;15.60;99.90;;;;;;4988800;28;20522;-64
2023/04/23 09:30:28;;;;;;;38.42;22.50;;;15.90;99.70;;;;;;5006242;28;20042;-64
2023/04/23 09:32:54;;;;;;;32.92;21.27;;;16.20;98.80;;;;;;5001967;28;20054;-68
2023/04/23 09:35:20;;;;;;;28.65;20.77;;;16.20;89.70;;;;;;5005920;28;20042;-64
2023/04/23 09:37:48;;;;;;;25.55;18.48;;;16.20;93.00;;;;;;4988349;28;20077;-64
2023/04/23 09:40:19;;;;;;;33.95;18.92;;;16.30;90.60;;;;;;5000598;28;20100;-64
2023/04/23 09:42:54;;;;;;;35.67;19.88;;;16.20;81.90;;;;;;4998863;28;20073;-63
2023/04/23 09:45:20;;;;;;;23.88;17.20;;;16.20;90.80;;;;;;4965262;28;20072;-64
2023/04/23 09:47:55;;;;;;;25.48;17.52;;;16.40;90.20;;;;;;4989270;28;20045;-64
2023/04/23 09:50:38;;;;;;;27.33;16.58;;;16.60;90.10;;;;;;5006005;28;20084;-64
2023/04/23 09:53:05;;;;;;;24.15;15.85;;;16.40;81.80;;;;;;5001241;28;20180;-63
2023/04/23 09:55:38;;;;;;;20.38;16.13;;;16.40;77.90;;;;;;4999321;28;20505;-63
2023/04/23 09:58:12;;;;;;;23.38;16.30;;;16.40;79.60;;;;;;4999524;28;20046;-63
2023/04/23 10:00:39;;;;;;;24.10;15.48;;;16.60;86.50;;;;;;4995737;28;20049;-63
2023/04/23 10:03:07;;;;;;;23.15;15.40;;;16.70;87.20;;;;;;5006080;28;20042;-63
2023/04/23 10:05:37;;;;;;;20.75;14.77;;;16.70;89.80;;;;;;4988052;28;20121;-63
2023/04/23 10:08:05;;;;;;;21.58;15.07;;;16.60;78.60;;;;;;5005883;28;20449;-63
2023/04/23 10:10:32;;;;;;;19.85;14.40;;;16.60;80.60;;;;;;4999311;28;20099;-63
2023/04/23 10:12:59;;;;;;;21.30;13.27;;;16.70;91.00;;;;;;5004977;28;20061;-63
2023/04/23 10:15:26;;;;;;;16.77;11.73;;;16.80;90.30;;;;;;5006040;28;20062;-64
2023/04/23 10:17:53;;;;;;;17.65;11.45;;;16.60;71.60;;;;;;5005106;28;20058;-63
2023/04/23 10:20:21;;;;;;;16.70;11.68;;;16.40;67.90;;;;;;5004804;28;20111;-63
2023/04/23 10:22:48;;;;;;;15.55;10.82;;;16.10;69.60;;;;;;5006495;28;20108;-62
2023/04/23 10:25:14;;;;;;;16.65;11.95;;;15.90;70.80;;;;;;5005568;28;20050;-85
2023/04/23 10:27:42;;;;;;;20.33;11.85;;;15.90;87.60;;;;;;5002549;28;20045;-63
2023/04/23 10:30:10;;;;;;;19.55;11.65;;;16.20;77.80;;;;;;5004754;28;20045;-63
2023/04/23 10:32:39;;;;;;;14.20;10.52;;;16.40;76.60;;;;;;5004132;28;20097;-63
2023/04/23 10:35:07;;;;;;;16.77;12.10;;;16.50;81.90;;;;;;5004749;28;20412;-62
2023/04/23 10:37:34;;;;;;;16.50;11.70;;;16.80;78.20;;;;;;4951862;28;20046;-62
2023/04/23 10:40:10;;;;;;;21.10;11.93;;;17.00;72.50;;;;;;5006393;28;20054;-62
2023/04/23 10:42:40;;;;;;;15.20;9.35;;;17.10;79.20;;;;;;5003329;28;20037;-63
2023/04/23 10:45:13;;;;;;;;;;;17.40;67.90;;;;;;4990019;28;20044;-62
2023/04/23 10:47:42;;;;;;;17.63;10.43;;;17.40;61.60;;;;;;5005234;28;19967;-79
2023/04/23 10:50:34;;;;;;;14.32;8.38;;;17.60;66.60;;;;;;5006662;28;20170;-62
2023/04/23 10:53:01;;;;;;;19.02;9.88;;;17.60;54.20;;;;;;5006487;28;20073;-61
2023/04/23 10:55:30;;;;;;;12.48;9.52;;;17.40;52.90;;;;;;4970066;28;20056;-62
2023/04/23 10:58:02;;;;;;;13.90;9.65;;;17.40;58.70;;;;;;5004642;28;20112;-62
2023/04/23 11:00:44;;;;;;;12.10;7.53;;;17.60;54.30;;;;;;4987745;28;20046;-62
2023/04/23 11:03:38;;;;;;;10.30;7.55;;;17.70;61.90;;;;;;4978003;28;20042;-62
2023/04/23 11:06:05;;;;;;;17.48;8.38;;;17.70;51.50;;;;;;4987937;28;20040;-62
2023/04/23 11:08:34;;;;;;;14.38;8.65;;;17.60;53.40;;;;;;5004583;28;20088;-61
2023/04/23 11:11:01;;;;;;;11.30;7.88;;;17.70;57.50;;;;;;5006301;28;20069;-62
2023/04/23 11:13:28;;;;;;;11.95;7.13;;;17.90;37.60;;;;;;4998909;28;20046;-62
2023/04/23 11:16:15;;;;;;;16.00;6.90;;;18.00;47.70;;;;;;4968512;28;20096;-62
2023/04/23 11:19:05;;;;;;;11.63;6.63;;;18.20;46.90;;;;;;5000839;28;20060;-61
2023/04/23 11:21:49;;;;;;;;;;;18.40;49.40;;;;;;5005395;28;20096;-61
2023/04/23 11:24:15;;;;;;;14.63;5.45;;;18.70;44.50;;;;;;4987938;28;20438;-61
2023/04/23 11:26:42;;;;;;;8.45;5.65;;;18.80;28.10;;;;;;4987956;28;20045;-61
2023/04/23 11:29:11;;;;;;;9.25;5.63;;;18.80;30.00;;;;;;5005296;28;20100;-61
2023/04/23 11:31:37;;;;;;;13.27;6.88;;;18.50;22.60;;;;;;5004848;28;20050;-61
2023/04/23 11:34:02;;;;;;;17.42;5.18;;;18.10;19.10;;;;;;4987125;28;20444;-61
2023/04/23 11:36:28;;;;;;;9.65;5.40;;;17.80;24.40;;;;;;4988290;28;20088;-61
2023/04/23 11:38:57;;;;;;;11.02;5.28;;;17.80;34.40;;;;;;5004470;28;20197;-61
2023/04/23 11:41:23;;;;;;;10.10;5.37;;;17.90;35.70;;;;;;4988472;28;20448;-61
2023/04/23 11:43:49;;;;;;;11.27;5.22;;;18.10;36.60;;;;;;5005184;28;20329;-61
2023/04/23 11:46:15;;;;;;;6.93;3.60;;;18.30;39.00;;;;;;4997893;28;20571;-61
2023/04/23 11:48:41;;;;;;;9.20;3.85;;;18.20;19.80;;;;;;4986555;28;20053;-61
2023/04/23 11:51:07;;;;;;;7.10;3.55;;;18.00;17.10;;;;;;4987033;28;20128;-83
2023/04/23 11:53:34;;;;;;;8.00;4.20;;;18.00;25.10;;;;;;5004556;28;20436;-61
2023/04/23 11:55:59;;;;;;;13.80;3.72;;;18.10;22.20;;;;;;5004237;28;20814;-61
2023/04/23 11:58:25;;;;;;;11.50;2.88;;;18.10;20.00;;;;;;5006053;28;20030;-61
2023/04/23 12:00:58;;;;;;;12.13;3.33;;;18.10;16.10;;;;;;4970568;28;20129;-61
2023/04/23 12:03:25;;;;;;;10.85;3.53;;;18.20;20.10;;;;;;5005803;28;20381;-61
2023/04/23 12:05:51;;;;;;;7.15;2.75;;;18.40;14.30;;;;;;5008785;28;20053;-61
2023/04/23 12:08:19;;;;;;;6.82;2.53;;;18.40;11.90;;;;;;5008302;28;20041;-61
2023/04/23 12:10:46;;;;;;;5.57;1.92;;;18.50;15.80;;;;;;5009086;28;20400;-61
2023/04/23 12:13:27;;;;;;;6.75;2.38;;;18.70;6.30;;;;;;5008412;28;20042;-61
2023/04/23 12:15:58;;;;;;;7.30;2.30;;;18.80;10.00;;;;;;5008421;28;20575;-61
2023/04/23 12:18:39;;;;;;;6.22;2.30;;;19.00;13.10;;;;;;5008971;28;20385;-61
2023/04/23 12:21:09;;;;;;;8.88;2.97;;;19.30;11.50;;;;;;4999813;28;20051;-61
2023/04/23 12:23:37;;;;;;;6.95;2.63;;;19.30;4.10;;;;;;5000035;28;20054;-61
2023/04/23 12:26:03;;;;;;;6.82;3.33;;;19.00;5.80;;;;;;4999493;28;20107;-61
2023/04/23 12:28:29;;;;;;;9.27;2.90;;;18.90;14.20;;;;;;5001681;28;20038;-61
2023/04/23 12:31:00;;;;;;;8.23;4.30;;;18.90;10.60;;;;;;5000872;28;20057;-61
2023/04/23 12:33:29;;;;;;;5.70;2.53;;;19.10;9.90;;;;;;5007259;28;20100;-61
2023/04/23 12:35:56;;;;;;;2.88;1.92;;;19.20;8.20;;;;;;5008217;28;20049;-61